sensor_id;sensor_type;location;lat;lon;timestamp;temperature;humidity
14409;DHT22;7289;50.706;4.992;2024-01-10T00:00:34;-5.60;98.40
14409;DHT22;7289;50.706;4.992;2024-01-10T00:03:04;-5.60;98.40
14409;DHT22;7289;50.706;4.992;2024-01-10T00:05:34;-5.60;98.40
14409;DHT22;7289;50.706;4.992;2024-01-10T00:08:04;-5.60;98.40
14409;DHT22;7289;50.706;4.992;2024-01-10T00:10:36;-5.70;98.50
14409;DHT22;7289;50.706;4.992;2024-01-10T00:13:05;-5.60;98.50
14409;DHT22;7289;50.706;4.992;2024-01-10T00:15:34;-5.60;98.50
14409;DHT22;7289;50.706;4.992;2024-01-10T00:18:06;-5.60;98.40
14409;DHT22;7289;50.706;4.992;2024-01-10T00:20:34;-5.70;98.60
14409;DHT22;7289;50.706;4.992;2024-01-10T00:23:03;-5.90;98.90
14409;DHT22;7289;50.706;4.992;2024-01-10T00:25:33;-5.90;99.00
14409;DHT22;7289;50.706;4.992;2024-01-10T00:28:01;-5.80;99.00
14409;DHT22;7289;50.706;4.992;2024-01-10T00:30:29;-5.90;99.00
14409;DHT22;7289;50.706;4.992;2024-01-10T00:32:58;-5.90;99.20
14409;DHT22;7289;50.706;4.992;2024-01-10T00:35:29;-6.00;99.30
14409;DHT22;7289;50.706;4.992;2024-01-10T00:37:57;-6.10;99.50
14409;DHT22;7289;50.706;4.992;2024-01-10T00:40:27;-6.10;99.60
14409;DHT22;7289;50.706;4.992;2024-01-10T00:42:56;-6.10;99.70
14409;DHT22;7289;50.706;4.992;2024-01-10T00:45:25;-6.10;99.90
14409;DHT22;7289;50.706;4.992;2024-01-10T00:47:55;-6.10;99.90
14409;DHT22;7289;50.706;4.992;2024-01-10T00:50:23;-6.20;99.90
14409;DHT22;7289;50.706;4.992;2024-01-10T00:52:53;-6.20;99.90
14409;DHT22;7289;50.706;4.992;2024-01-10T00:55:22;-6.10;99.90
14409;DHT22;7289;50.706;4.992;2024-01-10T00:57:50;-6.20;99.90
14409;DHT22;7289;50.706;4.992;2024-01-10T01:00:19;-6.10;99.90
14409;DHT22;7289;50.706;4.992;2024-01-10T01:02:49;-6.20;99.90
14409;DHT22;7289;50.706;4.992;2024-01-10T01:05:23;-6.20;99.90
14409;DHT22;7289;50.706;4.992;2024-01-10T01:07:54;-6.10;99.90
14409;DHT22;7289;50.706;4.992;2024-01-10T01:10:23;-6.10;99.90
14409;DHT22;7289;50.706;4.992;2024-01-10T01:12:52;-6.10;99.90
14409;DHT22;7289;50.706;4.992;2024-01-10T01:15:20;-6.20;99.90
14409;DHT22;7289;50.706;4.992;2024-01-10T01:17:50;-6.20;99.90
14409;DHT22;7289;50.706;4.992;2024-01-10T01:20:19;-6.10;99.90
14409;DHT22;7289;50.706;4.992;2024-01-10T01:22:49;-6.20;99.90
14409;DHT22;7289;50.706;4.992;2024-01-10T01:25:18;-6.30;99.90
14409;DHT22;7289;50.706;4.992;2024-01-10T01:27:48;-6.20;99.90
14409;DHT22;7289;50.706;4.992;2024-01-10T01:30:18;-6.20;99.90
14409;DHT22;7289;50.706;4.992;2024-01-10T01:32:49;-6.10;99.90
14409;DHT22;7289;50.706;4.992;2024-01-10T01:35:19;-6.00;99.90
14409;DHT22;7289;50.706;4.992;2024-01-10T01:37:53;-6.00;99.90
14409;DHT22;7289;50.706;4.992;2024-01-10T01:40:23;-6.00;99.90
14409;DHT22;7289;50.706;4.992;2024-01-10T01:42:51;-6.10;99.90
14409;DHT22;7289;50.706;4.992;2024-01-10T01:45:22;-6.10;99.90
14409;DHT22;7289;50.706;4.992;2024-01-10T01:47:51;-6.10;99.90
14409;DHT22;7289;50.706;4.992;2024-01-10T01:50:20;-6.20;99.90
14409;DHT22;7289;50.706;4.992;2024-01-10T01:52:49;-6.30;99.90
14409;DHT22;7289;50.706;4.992;2024-01-10T01:55:18;-6.30;99.90
14409;DHT22;7289;50.706;4.992;2024-01-10T01:57:49;-6.30;99.90
14409;DHT22;7289;50.706;4.992;2024-01-10T02:00:18;-6.30;99.90
14409;DHT22;7289;50.706;4.992;2024-01-10T02:02:48;-6.40;99.90
14409;DHT22;7289;50.706;4.992;2024-01-10T02:05:20;-6.40;99.90
14409;DHT22;7289;50.706;4.992;2024-01-10T02:07:50;-6.50;99.90
14409;DHT22;7289;50.706;4.992;2024-01-10T02:10:19;-6.50;99.90
14409;DHT22;7289;50.706;4.992;2024-01-10T02:12:51;-6.50;99.90
14409;DHT22;7289;50.706;4.992;2024-01-10T02:15:19;-6.60;99.90
14409;DHT22;7289;50.706;4.992;2024-01-10T02:17:49;-6.60;99.90
14409;DHT22;7289;50.706;4.992;2024-01-10T02:20:18;-6.70;99.90
14409;DHT22;7289;50.706;4.992;2024-01-10T02:22:48;-6.70;99.90
14409;DHT22;7289;50.706;4.992;2024-01-10T02:25:20;-6.80;99.90
14409;DHT22;7289;50.706;4.992;2024-01-10T02:27:48;-6.80;99.90
14409;DHT22;7289;50.706;4.992;2024-01-10T02:30:17;-6.80;99.90
14409;DHT22;7289;50.706;4.992;2024-01-10T02:32:47;-6.70;99.90
14409;DHT22;7289;50.706;4.992;2024-01-10T02:35:16;-6.60;99.90
14409;DHT22;7289;50.706;4.992;2024-01-10T02:37:45;-6.60;99.90
14409;DHT22;7289;50.706;4.992;2024-01-10T02:40:14;-6.60;99.90
14409;DHT22;7289;50.706;4.992;2024-01-10T02:42:45;-6.60;99.90
14409;DHT22;7289;50.706;4.992;2024-01-10T02:45:15;-6.50;99.90
14409;DHT22;7289;50.706;4.992;2024-01-10T02:47:45;-6.50;99.90
14409;DHT22;7289;50.706;4.992;2024-01-10T02:50:15;-6.50;99.90
14409;DHT22;7289;50.706;4.992;2024-01-10T02:52:44;-6.40;99.90
14409;DHT22;7289;50.706;4.992;2024-01-10T02:55:12;-6.30;99.90
14409;DHT22;7289;50.706;4.992;2024-01-10T02:57:41;-6.40;99.90
14409;DHT22;7289;50.706;4.992;2024-01-10T03:00:13;-6.40;99.90
14409;DHT22;7289;50.706;4.992;2024-01-10T03:02:41;-6.40;99.90
14409;DHT22;7289;50.706;4.992;2024-01-10T03:05:09;-6.50;99.90
14409;DHT22;7289;50.706;4.992;2024-01-10T03:07:38;-6.40;99.90
14409;DHT22;7289;50.706;4.992;2024-01-10T03:10:07;-6.40;99.90
14409;DHT22;7289;50.706;4.992;2024-01-10T03:12:36;-6.30;99.90
14409;DHT22;7289;50.706;4.992;2024-01-10T03:15:06;-6.30;99.90
14409;DHT22;7289;50.706;4.992;2024-01-10T03:17:37;-6.40;99.90
14409;DHT22;7289;50.706;4.992;2024-01-10T03:20:07;-6.40;99.90
14409;DHT22;7289;50.706;4.992;2024-01-10T03:22:37;-6.50;99.90
14409;DHT22;7289;50.706;4.992;2024-01-10T03:25:08;-6.50;99.90
14409;DHT22;7289;50.706;4.992;2024-01-10T03:27:37;-6.50;99.90
14409;DHT22;7289;50.706;4.992;2024-01-10T03:30:06;-6.60;99.90
14409;DHT22;7289;50.706;4.992;2024-01-10T03:32:36;-6.60;99.90
14409;DHT22;7289;50.706;4.992;2024-01-10T03:35:06;-6.60;99.90
14409;DHT22;7289;50.706;4.992;2024-01-10T03:37:36;-6.70;99.90
14409;DHT22;7289;50.706;4.992;2024-01-10T03:40:06;-6.70;99.90
14409;DHT22;7289;50.706;4.992;2024-01-10T03:42:36;-6.60;99.90
14409;DHT22;7289;50.706;4.992;2024-01-10T03:45:05;-6.60;99.90
14409;DHT22;7289;50.706;4.992;2024-01-10T03:47:36;-6.60;99.90
14409;DHT22;7289;50.706;4.992;2024-01-10T03:50:07;-6.60;99.90
14409;DHT22;7289;50.706;4.992;2024-01-10T03:52:35;-6.60;99.90
14409;DHT22;7289;50.706;4.992;2024-01-10T03:55:04;-6.60;99.90
14409;DHT22;7289;50.706;4.992;2024-01-10T03:57:33;-6.60;99.90
14409;DHT22;7289;50.706;4.992;2024-01-10T04:00:01;-6.70;99.90
14409;DHT22;7289;50.706;4.992;2024-01-10T04:02:31;-6.70;99.90
14409;DHT22;7289;50.706;4.992;2024-01-10T04:05:00;-6.70;99.90
14409;DHT22;7289;50.706;4.992;2024-01-10T04:07:29;-6.80;99.90
14409;DHT22;7289;50.706;4.992;2024-01-10T04:09:57;-6.80;99.90
14409;DHT22;7289;50.706;4.992;2024-01-10T04:12:27;-6.80;99.90
14409;DHT22;7289;50.706;4.992;2024-01-10T04:14:56;-6.90;99.90
14409;DHT22;7289;50.706;4.992;2024-01-10T04:17:25;-6.80;99.90
14409;DHT22;7289;50.706;4.992;2024-01-10T04:19:53;-6.90;99.90
14409;DHT22;7289;50.706;4.992;2024-01-10T04:22:25;-6.90;99.90
14409;DHT22;7289;50.706;4.992;2024-01-10T04:24:53;-6.90;99.90
14409;DHT22;7289;50.706;4.992;2024-01-10T04:27:22;-6.90;99.90
14409;DHT22;7289;50.706;4.992;2024-01-10T04:29:50;-7.00;99.90
14409;DHT22;7289;50.706;4.992;2024-01-10T04:32:19;-7.00;99.90
14409;DHT22;7289;50.706;4.992;2024-01-10T04:34:48;-7.00;99.90
14409;DHT22;7289;50.706;4.992;2024-01-10T04:37:18;-7.00;99.90
14409;DHT22;7289;50.706;4.992;2024-01-10T04:39:50;-7.10;99.90
14409;DHT22;7289;50.706;4.992;2024-01-10T04:42:21;-7.00;99.90
14409;DHT22;7289;50.706;4.992;2024-01-10T04:44:50;-7.10;99.90
14409;DHT22;7289;50.706;4.992;2024-01-10T04:47:20;-7.00;99.90
14409;DHT22;7289;50.706;4.992;2024-01-10T04:49:50;-7.00;99.90
14409;DHT22;7289;50.706;4.992;2024-01-10T04:52:19;-7.00;99.90
14409;DHT22;7289;50.706;4.992;2024-01-10T04:54:48;-6.90;99.90
14409;DHT22;7289;50.706;4.992;2024-01-10T04:57:20;-6.90;99.90
14409;DHT22;7289;50.706;4.992;2024-01-10T04:59:48;-7.00;99.90
14409;DHT22;7289;50.706;4.992;2024-01-10T05:02:17;-6.90;99.90
14409;DHT22;7289;50.706;4.992;2024-01-10T05:04:48;-6.90;99.90
14409;DHT22;7289;50.706;4.992;2024-01-10T05:07:17;-7.00;99.90
14409;DHT22;7289;50.706;4.992;2024-01-10T05:09:46;-7.00;99.90
14409;DHT22;7289;50.706;4.992;2024-01-10T05:12:15;-7.10;99.90
14409;DHT22;7289;50.706;4.992;2024-01-10T05:14:45;-7.00;99.90
14409;DHT22;7289;50.706;4.992;2024-01-10T05:17:14;-7.00;99.90
14409;DHT22;7289;50.706;4.992;2024-01-10T05:19:43;-6.90;99.90
14409;DHT22;7289;50.706;4.992;2024-01-10T05:22:13;-7.00;99.90
14409;DHT22;7289;50.706;4.992;2024-01-10T05:24:42;-7.00;99.90
14409;DHT22;7289;50.706;4.992;2024-01-10T05:27:11;-6.90;99.90
14409;DHT22;7289;50.706;4.992;2024-01-10T05:29:40;-6.80;99.90
14409;DHT22;7289;50.706;4.992;2024-01-10T05:32:11;-6.90;99.90
14409;DHT22;7289;50.706;4.992;2024-01-10T05:34:40;-6.90;99.90
14409;DHT22;7289;50.706;4.992;2024-01-10T05:37:09;-6.90;99.90
14409;DHT22;7289;50.706;4.992;2024-01-10T05:39:37;-6.80;99.90
14409;DHT22;7289;50.706;4.992;2024-01-10T05:42:05;-6.80;99.90
14409;DHT22;7289;50.706;4.992;2024-01-10T05:44:34;-6.60;99.90
14409;DHT22;7289;50.706;4.992;2024-01-10T05:47:03;-6.70;99.90
14409;DHT22;7289;50.706;4.992;2024-01-10T05:49:33;-6.60;99.90
14409;DHT22;7289;50.706;4.992;2024-01-10T05:52:01;-6.50;99.90
14409;DHT22;7289;50.706;4.992;2024-01-10T05:54:31;-6.60;99.90
14409;DHT22;7289;50.706;4.992;2024-01-10T05:56:59;-6.60;99.90
14409;DHT22;7289;50.706;4.992;2024-01-10T05:59:30;-6.60;99.90
14409;DHT22;7289;50.706;4.992;2024-01-10T06:01:58;-6.50;99.90
14409;DHT22;7289;50.706;4.992;2024-01-10T06:04:28;-6.50;99.90
14409;DHT22;7289;50.706;4.992;2024-01-10T06:07:01;-6.60;99.90
14409;DHT22;7289;50.706;4.992;2024-01-10T06:09:31;-6.50;99.90
14409;DHT22;7289;50.706;4.992;2024-01-10T06:12:00;-6.50;99.90
14409;DHT22;7289;50.706;4.992;2024-01-10T06:14:30;-6.50;99.90
14409;DHT22;7289;50.706;4.992;2024-01-10T06:16:59;-6.50;99.90
14409;DHT22;7289;50.706;4.992;2024-01-10T06:19:29;-6.50;99.90
14409;DHT22;7289;50.706;4.992;2024-01-10T06:22:00;-6.40;99.90
14409;DHT22;7289;50.706;4.992;2024-01-10T06:24:29;-6.50;99.90
14409;DHT22;7289;50.706;4.992;2024-01-10T06:26:58;-6.50;99.90
14409;DHT22;7289;50.706;4.992;2024-01-10T06:29:27;-6.40;99.90
14409;DHT22;7289;50.706;4.992;2024-01-10T06:31:56;-6.40;99.90
14409;DHT22;7289;50.706;4.992;2024-01-10T06:34:25;-6.50;99.90
14409;DHT22;7289;50.706;4.992;2024-01-10T06:36:54;-6.50;99.90
14409;DHT22;7289;50.706;4.992;2024-01-10T06:39:23;-6.40;99.90
14409;DHT22;7289;50.706;4.992;2024-01-10T06:41:53;-6.40;99.90
14409;DHT22;7289;50.706;4.992;2024-01-10T06:44:21;-6.40;99.90
14409;DHT22;7289;50.706;4.992;2024-01-10T06:46:51;-6.50;99.90
14409;DHT22;7289;50.706;4.992;2024-01-10T06:49:19;-6.50;99.90
14409;DHT22;7289;50.706;4.992;2024-01-10T06:51:48;-6.40;99.90
14409;DHT22;7289;50.706;4.992;2024-01-10T06:54:17;-6.40;99.90
14409;DHT22;7289;50.706;4.992;2024-01-10T06:56:48;-6.30;99.90
14409;DHT22;7289;50.706;4.992;2024-01-10T06:59:19;-6.40;99.90
14409;DHT22;7289;50.706;4.992;2024-01-10T07:01:51;-6.40;99.90
14409;DHT22;7289;50.706;4.992;2024-01-10T07:04:21;-6.50;99.90
14409;DHT22;7289;50.706;4.992;2024-01-10T07:06:55;-6.50;99.90
14409;DHT22;7289;50.706;4.992;2024-01-10T07:09:23;-6.60;99.90
14409;DHT22;7289;50.706;4.992;2024-01-10T07:11:53;-6.40;99.90
14409;DHT22;7289;50.706;4.992;2024-01-10T07:14:23;-6.40;99.90
14409;DHT22;7289;50.706;4.992;2024-01-10T07:16:52;-6.30;99.90
14409;DHT22;7289;50.706;4.992;2024-01-10T07:19:26;-6.20;99.90
14409;DHT22;7289;50.706;4.992;2024-01-10T07:21:56;-6.20;99.90
14409;DHT22;7289;50.706;4.992;2024-01-10T07:24:25;-6.20;99.90
14409;DHT22;7289;50.706;4.992;2024-01-10T07:26:57;-6.20;99.90
14409;DHT22;7289;50.706;4.992;2024-01-10T07:29:26;-6.20;99.90
14409;DHT22;7289;50.706;4.992;2024-01-10T07:31:56;-6.20;99.90
14409;DHT22;7289;50.706;4.992;2024-01-10T07:34:26;-6.20;99.90
14409;DHT22;7289;50.706;4.992;2024-01-10T07:36:55;-6.20;99.90
14409;DHT22;7289;50.706;4.992;2024-01-10T07:39:25;-6.20;99.90
14409;DHT22;7289;50.706;4.992;2024-01-10T07:41:53;-6.10;99.90
14409;DHT22;7289;50.706;4.992;2024-01-10T07:44:23;-6.20;99.90
14409;DHT22;7289;50.706;4.992;2024-01-10T07:46:53;-6.20;99.90
14409;DHT22;7289;50.706;4.992;2024-01-10T07:49:22;-6.20;99.90
14409;DHT22;7289;50.706;4.992;2024-01-10T07:51:51;-6.20;99.90
14409;DHT22;7289;50.706;4.992;2024-01-10T07:54:21;-6.20;99.90
14409;DHT22;7289;50.706;4.992;2024-01-10T07:56:51;-6.20;99.90
14409;DHT22;7289;50.706;4.992;2024-01-10T07:59:23;-6.10;99.90
14409;DHT22;7289;50.706;4.992;2024-01-10T08:01:56;-6.20;99.90
14409;DHT22;7289;50.706;4.992;2024-01-10T08:04:26;-6.10;99.90
14409;DHT22;7289;50.706;4.992;2024-01-10T08:06:55;-6.20;99.90
14409;DHT22;7289;50.706;4.992;2024-01-10T08:09:24;-6.20;99.90
14409;DHT22;7289;50.706;4.992;2024-01-10T08:11:52;-6.10;99.90
14409;DHT22;7289;50.706;4.992;2024-01-10T08:14:22;-6.10;99.90
14409;DHT22;7289;50.706;4.992;2024-01-10T08:16:52;-6.10;99.90
14409;DHT22;7289;50.706;4.992;2024-01-10T08:19:21;-6.10;99.90
14409;DHT22;7289;50.706;4.992;2024-01-10T08:21:50;-6.10;99.90
14409;DHT22;7289;50.706;4.992;2024-01-10T08:24:19;-6.00;99.90
14409;DHT22;7289;50.706;4.992;2024-01-10T08:26:48;-6.00;99.90
14409;DHT22;7289;50.706;4.992;2024-01-10T08:29:19;-6.00;99.90
14409;DHT22;7289;50.706;4.992;2024-01-10T08:31:51;-6.20;99.90
14409;DHT22;7289;50.706;4.992;2024-01-10T08:34:19;-6.30;99.90
14409;DHT22;7289;50.706;4.992;2024-01-10T08:36:48;-6.50;99.90
14409;DHT22;7289;50.706;4.992;2024-01-10T08:39:18;-6.30;99.90
14409;DHT22;7289;50.706;4.992;2024-01-10T08:41:47;-6.20;99.90
14409;DHT22;7289;50.706;4.992;2024-01-10T08:44:16;-6.00;99.90
14409;DHT22;7289;50.706;4.992;2024-01-10T08:46:45;-5.80;99.90
14409;DHT22;7289;50.706;4.992;2024-01-10T08:49:15;-5.80;99.90
14409;DHT22;7289;50.706;4.992;2024-01-10T08:51:44;-5.70;99.90
14409;DHT22;7289;50.706;4.992;2024-01-10T08:54:13;-5.60;99.90
14409;DHT22;7289;50.706;4.992;2024-01-10T08:56:44;-5.50;99.90
14409;DHT22;7289;50.706;4.992;2024-01-10T08:59:12;-5.40;99.90
14409;DHT22;7289;50.706;4.992;2024-01-10T09:01:42;-5.40;99.90
14409;DHT22;7289;50.706;4.992;2024-01-10T09:04:11;-5.40;99.90
14409;DHT22;7289;50.706;4.992;2024-01-10T09:06:41;-5.40;99.90
14409;DHT22;7289;50.706;4.992;2024-01-10T09:09:10;-5.30;99.90
14409;DHT22;7289;50.706;4.992;2024-01-10T09:11:40;-5.30;99.90
14409;DHT22;7289;50.706;4.992;2024-01-10T09:14:11;-5.30;99.90
14409;DHT22;7289;50.706;4.992;2024-01-10T09:16:40;-5.30;99.90
14409;DHT22;7289;50.706;4.992;2024-01-10T09:19:08;-5.20;99.90
14409;DHT22;7289;50.706;4.992;2024-01-10T09:21:40;-5.10;99.90
14409;DHT22;7289;50.706;4.992;2024-01-10T09:24:09;-5.10;99.90
14409;DHT22;7289;50.706;4.992;2024-01-10T09:26:54;-5.00;99.90
14409;DHT22;7289;50.706;4.992;2024-01-10T09:29:24;-5.00;99.90
14409;DHT22;7289;50.706;4.992;2024-01-10T09:31:54;-5.00;99.90
14409;DHT22;7289;50.706;4.992;2024-01-10T09:34:23;-4.90;99.90
14409;DHT22;7289;50.706;4.992;2024-01-10T09:36:53;-4.80;99.90
14409;DHT22;7289;50.706;4.992;2024-01-10T09:39:22;-4.80;99.90
14409;DHT22;7289;50.706;4.992;2024-01-10T09:41:50;-4.80;99.90
14409;DHT22;7289;50.706;4.992;2024-01-10T09:44:21;-4.80;99.90
14409;DHT22;7289;50.706;4.992;2024-01-10T09:46:52;-4.60;99.90
14409;DHT22;7289;50.706;4.992;2024-01-10T09:49:21;-4.40;99.90
14409;DHT22;7289;50.706;4.992;2024-01-10T09:51:57;-4.20;99.90
14409;DHT22;7289;50.706;4.992;2024-01-10T09:54:26;-3.90;99.90
14409;DHT22;7289;50.706;4.992;2024-01-10T09:56:57;-3.80;99.90
14409;DHT22;7289;50.706;4.992;2024-01-10T09:59:27;-3.90;99.90
14409;DHT22;7289;50.706;4.992;2024-01-10T10:01:56;-4.00;99.90
14409;DHT22;7289;50.706;4.992;2024-01-10T10:04:27;-4.00;99.90
14409;DHT22;7289;50.706;4.992;2024-01-10T10:07:00;-4.00;99.90
14409;DHT22;7289;50.706;4.992;2024-01-10T10:09:30;-3.80;99.90
14409;DHT22;7289;50.706;4.992;2024-01-10T10:11:59;-3.60;99.90
14409;DHT22;7289;50.706;4.992;2024-01-10T10:14:29;-3.60;99.70
14409;DHT22;7289;50.706;4.992;2024-01-10T10:17:14;-3.60;99.40
14409;DHT22;7289;50.706;4.992;2024-01-10T10:19:43;-3.60;99.50
14409;DHT22;7289;50.706;4.992;2024-01-10T10:22:15;-3.50;99.70
14409;DHT22;7289;50.706;4.992;2024-01-10T10:24:48;-3.30;99.40
14409;DHT22;7289;50.706;4.992;2024-01-10T10:27:17;-3.10;99.40
14409;DHT22;7289;50.706;4.992;2024-01-10T10:29:45;-3.00;99.00
14409;DHT22;7289;50.706;4.992;2024-01-10T10:32:15;-3.00;98.30
14409;DHT22;7289;50.706;4.992;2024-01-10T10:34:45;-2.90;98.60
14409;DHT22;7289;50.706;4.992;2024-01-10T10:37:15;-3.00;99.00
14409;DHT22;7289;50.706;4.992;2024-01-10T10:39:44;-2.90;99.00
14409;DHT22;7289;50.706;4.992;2024-01-10T10:42:14;-2.70;98.80
14409;DHT22;7289;50.706;4.992;2024-01-10T10:44:43;-2.70;98.50
14409;DHT22;7289;50.706;4.992;2024-01-10T10:47:14;-2.40;98.40
14409;DHT22;7289;50.706;4.992;2024-01-10T10:49:47;-2.50;98.30
14409;DHT22;7289;50.706;4.992;2024-01-10T10:52:21;-2.30;98.20
14409;DHT22;7289;50.706;4.992;2024-01-10T10:54:56;-2.30;97.80
14409;DHT22;7289;50.706;4.992;2024-01-10T10:57:27;-2.30;97.90
14409;DHT22;7289;50.706;4.992;2024-01-10T10:59:57;-2.20;97.80
14409;DHT22;7289;50.706;4.992;2024-01-10T11:02:27;-2.00;97.50
14409;DHT22;7289;50.706;4.992;2024-01-10T11:04:58;-1.90;97.20
14409;DHT22;7289;50.706;4.992;2024-01-10T11:07:29;-1.90;95.90
14409;DHT22;7289;50.706;4.992;2024-01-10T11:09:59;-1.90;96.10
14409;DHT22;7289;50.706;4.992;2024-01-10T11:12:38;-1.80;96.10
14409;DHT22;7289;50.706;4.992;2024-01-10T11:15:30;-1.80;96.00
14409;DHT22;7289;50.706;4.992;2024-01-10T11:18:26;-1.60;95.40
14409;DHT22;7289;50.706;4.992;2024-01-10T11:21:06;-1.70;96.40
14409;DHT22;7289;50.706;4.992;2024-01-10T11:23:42;-1.50;96.20
14409;DHT22;7289;50.706;4.992;2024-01-10T11:26:14;-1.40;95.70
14409;DHT22;7289;50.706;4.992;2024-01-10T11:28:44;-1.40;95.10
14409;DHT22;7289;50.706;4.992;2024-01-10T11:31:15;-1.40;94.80
14409;DHT22;7289;50.706;4.992;2024-01-10T11:33:44;-1.50;95.00
14409;DHT22;7289;50.706;4.992;2024-01-10T11:36:19;-1.40;95.50
14409;DHT22;7289;50.706;4.992;2024-01-10T11:38:54;-1.20;94.80
14409;DHT22;7289;50.706;4.992;2024-01-10T11:41:25;-1.20;94.20
14409;DHT22;7289;50.706;4.992;2024-01-10T11:47:09;-1.20;94.50
14409;DHT22;7289;50.706;4.992;2024-01-10T11:49:37;-1.40;94.20
14409;DHT22;7289;50.706;4.992;2024-01-10T11:52:06;-1.30;94.30
14409;DHT22;7289;50.706;4.992;2024-01-10T11:54:52;-1.20;94.50
14409;DHT22;7289;50.706;4.992;2024-01-10T11:57:21;-1.10;94.60
14409;DHT22;7289;50.706;4.992;2024-01-10T11:59:53;-1.00;94.80
14409;DHT22;7289;50.706;4.992;2024-01-10T12:02:23;-1.10;94.80
14409;DHT22;7289;50.706;4.992;2024-01-10T12:04:54;-1.30;94.40
14409;DHT22;7289;50.706;4.992;2024-01-10T12:07:23;-1.60;94.40
14409;DHT22;7289;50.706;4.992;2024-01-10T12:09:52;-1.60;94.40
14409;DHT22;7289;50.706;4.992;2024-01-10T12:12:23;-1.40;94.90
14409;DHT22;7289;50.706;4.992;2024-01-10T12:14:52;-1.30;94.30
14409;DHT22;7289;50.706;4.992;2024-01-10T12:17:22;-1.10;94.50
14409;DHT22;7289;50.706;4.992;2024-01-10T12:19:55;-1.00;94.70
14409;DHT22;7289;50.706;4.992;2024-01-10T12:22:23;-1.10;94.20
14409;DHT22;7289;50.706;4.992;2024-01-10T12:24:53;-1.10;94.20
14409;DHT22;7289;50.706;4.992;2024-01-10T12:27:22;-1.00;94.90
14409;DHT22;7289;50.706;4.992;2024-01-10T12:29:52;-0.80;94.40
14409;DHT22;7289;50.706;4.992;2024-01-10T12:32:23;-0.60;94.30
14409;DHT22;7289;50.706;4.992;2024-01-10T12:34:57;-0.50;93.80
14409;DHT22;7289;50.706;4.992;2024-01-10T12:37:26;-0.40;93.90
14409;DHT22;7289;50.706;4.992;2024-01-10T12:39:55;-0.50;94.10
14409;DHT22;7289;50.706;4.992;2024-01-10T12:42:24;-0.30;93.80
14409;DHT22;7289;50.706;4.992;2024-01-10T12:44:54;-0.20;94.00
14409;DHT22;7289;50.706;4.992;2024-01-10T12:47:25;-0.30;93.60
14409;DHT22;7289;50.706;4.992;2024-01-10T12:49:56;-0.30;93.70
14409;DHT22;7289;50.706;4.992;2024-01-10T12:52:25;-0.70;93.70
14409;DHT22;7289;50.706;4.992;2024-01-10T12:54:55;-0.50;94.20
14409;DHT22;7289;50.706;4.992;2024-01-10T12:57:25;-0.60;93.70
14409;DHT22;7289;50.706;4.992;2024-01-10T12:59:53;-0.50;93.50
14409;DHT22;7289;50.706;4.992;2024-01-10T13:02:23;-0.60;93.40
14409;DHT22;7289;50.706;4.992;2024-01-10T13:04:52;-0.60;93.30
14409;DHT22;7289;50.706;4.992;2024-01-10T13:07:22;-0.80;93.60
14409;DHT22;7289;50.706;4.992;2024-01-10T13:09:50;-0.60;94.00
14409;DHT22;7289;50.706;4.992;2024-01-10T13:12:21;-0.70;93.60
14409;DHT22;7289;50.706;4.992;2024-01-10T13:14:49;-0.90;93.80
14409;DHT22;7289;50.706;4.992;2024-01-10T13:17:17;-0.90;94.20
14409;DHT22;7289;50.706;4.992;2024-01-10T13:19:51;-0.80;94.00
14409;DHT22;7289;50.706;4.992;2024-01-10T13:22:22;-0.70;94.00
14409;DHT22;7289;50.706;4.992;2024-01-10T13:24:50;-0.70;93.90
14409;DHT22;7289;50.706;4.992;2024-01-10T13:27:19;-0.70;93.50
14409;DHT22;7289;50.706;4.992;2024-01-10T13:29:52;-0.50;93.50
14409;DHT22;7289;50.706;4.992;2024-01-10T13:32:21;-0.80;93.50
14409;DHT22;7289;50.706;4.992;2024-01-10T13:34:52;-0.60;93.50
14409;DHT22;7289;50.706;4.992;2024-01-10T13:37:20;-0.60;93.20
14409;DHT22;7289;50.706;4.992;2024-01-10T13:39:49;-0.50;93.60
14409;DHT22;7289;50.706;4.992;2024-01-10T13:42:18;-0.70;93.70
14409;DHT22;7289;50.706;4.992;2024-01-10T13:44:47;-0.40;93.90
14409;DHT22;7289;50.706;4.992;2024-01-10T13:47:17;-0.30;93.50
14409;DHT22;7289;50.706;4.992;2024-01-10T13:49:47;-0.40;93.30
14409;DHT22;7289;50.706;4.992;2024-01-10T13:52:17;-0.40;93.50
14409;DHT22;7289;50.706;4.992;2024-01-10T13:54:47;-0.50;93.60
14409;DHT22;7289;50.706;4.992;2024-01-10T13:57:16;-0.60;93.40
14409;DHT22;7289;50.706;4.992;2024-01-10T13:59:45;-0.70;93.90
14409;DHT22;7289;50.706;4.992;2024-01-10T14:02:15;-0.70;94.10
14409;DHT22;7289;50.706;4.992;2024-01-10T14:04:46;-0.60;94.30
14409;DHT22;7289;50.706;4.992;2024-01-10T14:07:16;-0.50;94.20
14409;DHT22;7289;50.706;4.992;2024-01-10T14:09:47;-0.30;93.80
14409;DHT22;7289;50.706;4.992;2024-01-10T14:12:15;-0.20;93.90
14409;DHT22;7289;50.706;4.992;2024-01-10T14:14:44;-0.30;93.60
14409;DHT22;7289;50.706;4.992;2024-01-10T14:17:12;-0.10;94.10
14409;DHT22;7289;50.706;4.992;2024-01-10T14:19:41;-0.10;93.60
14409;DHT22;7289;50.706;4.992;2024-01-10T14:22:12;-0.10;93.40
14409;DHT22;7289;50.706;4.992;2024-01-10T14:24:59;-0.10;93.60
14409;DHT22;7289;50.706;4.992;2024-01-10T14:27:29;0.00;93.70
14409;DHT22;7289;50.706;4.992;2024-01-10T14:29:58;0.30;93.80
14409;DHT22;7289;50.706;4.992;2024-01-10T14:32:30;0.60;93.70
14409;DHT22;7289;50.706;4.992;2024-01-10T14:35:01;0.70;93.40
14409;DHT22;7289;50.706;4.992;2024-01-10T14:37:30;0.70;93.50
14409;DHT22;7289;50.706;4.992;2024-01-10T14:39:59;0.80;93.50
14409;DHT22;7289;50.706;4.992;2024-01-10T14:42:28;1.00;93.20
14409;DHT22;7289;50.706;4.992;2024-01-10T14:44:57;0.70;93.00
14409;DHT22;7289;50.706;4.992;2024-01-10T14:47:27;0.70;93.10
14409;DHT22;7289;50.706;4.992;2024-01-10T14:49:59;0.70;93.40
14409;DHT22;7289;50.706;4.992;2024-01-10T14:52:28;0.60;92.80
14409;DHT22;7289;50.706;4.992;2024-01-10T14:54:58;0.30;92.90
14409;DHT22;7289;50.706;4.992;2024-01-10T14:57:28;0.30;92.90
14409;DHT22;7289;50.706;4.992;2024-01-10T14:59:57;0.00;92.60
14409;DHT22;7289;50.706;4.992;2024-01-10T15:02:29;0.10;93.40
14409;DHT22;7289;50.706;4.992;2024-01-10T15:04:57;0.00;93.60
14409;DHT22;7289;50.706;4.992;2024-01-10T15:07:26;0.30;93.80
14409;DHT22;7289;50.706;4.992;2024-01-10T15:09:56;0.30;94.20
14409;DHT22;7289;50.706;4.992;2024-01-10T15:12:27;0.50;94.00
14409;DHT22;7289;50.706;4.992;2024-01-10T15:14:56;0.50;93.70
14409;DHT22;7289;50.706;4.992;2024-01-10T15:17:27;0.40;93.20
14409;DHT22;7289;50.706;4.992;2024-01-10T15:19:55;0.30;93.60
14409;DHT22;7289;50.706;4.992;2024-01-10T15:22:24;0.30;93.40
14409;DHT22;7289;50.706;4.992;2024-01-10T15:24:55;0.40;93.20
14409;DHT22;7289;50.706;4.992;2024-01-10T15:27:27;0.10;92.90
14409;DHT22;7289;50.706;4.992;2024-01-10T15:29:55;-0.10;93.00
14409;DHT22;7289;50.706;4.992;2024-01-10T15:32:41;-0.30;93.40
14409;DHT22;7289;50.706;4.992;2024-01-10T15:35:10;-0.60;93.60
14409;DHT22;7289;50.706;4.992;2024-01-10T15:37:39;-0.80;93.70
14409;DHT22;7289;50.706;4.992;2024-01-10T15:40:11;-0.90;93.70
14409;DHT22;7289;50.706;4.992;2024-01-10T15:42:44;-1.00;94.10
14409;DHT22;7289;50.706;4.992;2024-01-10T15:45:14;-0.90;94.50
14409;DHT22;7289;50.706;4.992;2024-01-10T15:47:43;-1.10;94.60
14409;DHT22;7289;50.706;4.992;2024-01-10T15:50:12;-1.20;94.80
14409;DHT22;7289;50.706;4.992;2024-01-10T15:52:42;-1.20;95.20
14409;DHT22;7289;50.706;4.992;2024-01-10T15:55:11;-1.20;95.20
14409;DHT22;7289;50.706;4.992;2024-01-10T15:57:41;-1.20;95.30
14409;DHT22;7289;50.706;4.992;2024-01-10T16:00:16;-1.30;95.40
14409;DHT22;7289;50.706;4.992;2024-01-10T16:02:44;-1.40;95.50
14409;DHT22;7289;50.706;4.992;2024-01-10T16:05:14;-1.50;95.70
14409;DHT22;7289;50.706;4.992;2024-01-10T16:07:46;-1.40;95.70